sensor_id;sensor_type;location;lat;lon;timestamp;temperature;humidity
8662;DHT22;29684;47.722;9.388;2023-01-05T00:00:02;9.20;99.90
8662;DHT22;29684;47.722;9.388;2023-01-05T00:02:46;9.70;99.90
8662;DHT22;29684;47.722;9.388;2023-01-05T00:05:30;9.20;99.90
8662;DHT22;29684;47.722;9.388;2023-01-05T00:08:14;9.70;99.90
8662;DHT22;29684;47.722;9.388;2023-01-05T00:11:06;10.00;99.90
8662;DHT22;29684;47.722;9.388;2023-01-05T00:14:15;9.80;99.90
8662;DHT22;29684;47.722;9.388;2023-01-05T00:17:21;9.80;99.90
8662;DHT22;29684;47.722;9.388;2023-01-05T00:20:24;9.80;99.90
8662;DHT22;29684;47.722;9.388;2023-01-05T00:23:27;9.70;99.90
8662;DHT22;29684;47.722;9.388;2023-01-05T00:26:11;9.70;99.90
8662;DHT22;29684;47.722;9.388;2023-01-05T00:28:55;9.90;99.90
8662;DHT22;29684;47.722;9.388;2023-01-05T00:31:39;9.80;99.90
8662;DHT22;29684;47.722;9.388;2023-01-05T00:34:23;10.40;99.90
8662;DHT22;29684;47.722;9.388;2023-01-05T00:37:07;9.50;99.90
8662;DHT22;29684;47.722;9.388;2023-01-05T00:39:51;9.90;99.90
8662;DHT22;29684;47.722;9.388;2023-01-05T00:42:36;9.90;99.90
8662;DHT22;29684;47.722;9.388;2023-01-05T00:45:20;9.90;99.90
8662;DHT22;29684;47.722;9.388;2023-01-05T00:48:05;9.90;99.90
8662;DHT22;29684;47.722;9.388;2023-01-05T00:50:49;11.00;99.90
8662;DHT22;29684;47.722;9.388;2023-01-05T00:53:33;10.30;99.90
8662;DHT22;29684;47.722;9.388;2023-01-05T00:56:17;10.00;99.90
8662;DHT22;29684;47.722;9.388;2023-01-05T00:59:02;9.90;99.90
8662;DHT22;29684;47.722;9.388;2023-01-05T01:01:47;9.90;99.90
8662;DHT22;29684;47.722;9.388;2023-01-05T01:04:32;9.90;99.90
8662;DHT22;29684;47.722;9.388;2023-01-05T01:07:17;9.70;99.90
8662;DHT22;29684;47.722;9.388;2023-01-05T01:10:01;9.70;99.90
8662;DHT22;29684;47.722;9.388;2023-01-05T01:12:46;9.60;99.90
8662;DHT22;29684;47.722;9.388;2023-01-05T01:15:30;9.70;99.90
8662;DHT22;29684;47.722;9.388;2023-01-05T01:18:14;9.70;99.90
8662;DHT22;29684;47.722;9.388;2023-01-05T01:20:58;9.20;99.90
8662;DHT22;29684;47.722;9.388;2023-01-05T01:23:43;9.80;99.90
8662;DHT22;29684;47.722;9.388;2023-01-05T01:26:28;9.70;99.90
8662;DHT22;29684;47.722;9.388;2023-01-05T01:29:12;9.80;99.90
8662;DHT22;29684;47.722;9.388;2023-01-05T01:31:56;9.60;99.90
8662;DHT22;29684;47.722;9.388;2023-01-05T01:34:40;9.60;99.90
8662;DHT22;29684;47.722;9.388;2023-01-05T01:37:24;9.70;99.90
8662;DHT22;29684;47.722;9.388;2023-01-05T01:40:09;9.70;99.90
8662;DHT22;29684;47.722;9.388;2023-01-05T01:42:53;9.60;99.90
8662;DHT22;29684;47.722;9.388;2023-01-05T01:45:38;10.10;99.90
8662;DHT22;29684;47.722;9.388;2023-01-05T01:48:22;9.60;99.90
8662;DHT22;29684;47.722;9.388;2023-01-05T01:51:13;9.60;99.90
8662;DHT22;29684;47.722;9.388;2023-01-05T01:53:59;9.70;99.90
8662;DHT22;29684;47.722;9.388;2023-01-05T01:56:51;9.70;99.90
8662;DHT22;29684;47.722;9.388;2023-01-05T01:59:36;9.70;99.90
8662;DHT22;29684;47.722;9.388;2023-01-05T02:02:21;9.70;99.90
8662;DHT22;29684;47.722;9.388;2023-01-05T02:05:09;9.70;99.90
8662;DHT22;29684;47.722;9.388;2023-01-05T02:07:54;9.60;99.90
8662;DHT22;29684;47.722;9.388;2023-01-05T02:13:42;9.50;99.90
8662;DHT22;29684;47.722;9.388;2023-01-05T02:26:19;9.30;99.90
8662;DHT22;29684;47.722;9.388;2023-01-05T02:38:22;9.20;99.90
8662;DHT22;29684;47.722;9.388;2023-01-05T02:41:15;9.20;99.90
8662;DHT22;29684;47.722;9.388;2023-01-05T02:44:01;9.20;99.90
8662;DHT22;29684;47.722;9.388;2023-01-05T02:46:46;9.20;99.90
8662;DHT22;29684;47.722;9.388;2023-01-05T02:49:41;8.90;99.90
8662;DHT22;29684;47.722;9.388;2023-01-05T02:52:26;8.80;99.90
8662;DHT22;29684;47.722;9.388;2023-01-05T02:55:17;9.40;99.90
8662;DHT22;29684;47.722;9.388;2023-01-05T02:58:06;10.70;99.90
8662;DHT22;29684;47.722;9.388;2023-01-05T03:01:04;9.40;99.90
8662;DHT22;29684;47.722;9.388;2023-01-05T03:04:42;9.30;99.90
8662;DHT22;29684;47.722;9.388;2023-01-05T03:07:26;9.30;99.90
8662;DHT22;29684;47.722;9.388;2023-01-05T03:10:12;9.30;99.90
8662;DHT22;29684;47.722;9.388;2023-01-05T03:13:29;8.90;99.90
8662;DHT22;29684;47.722;9.388;2023-01-05T03:16:35;9.20;99.90
8662;DHT22;29684;47.722;9.388;2023-01-05T03:19:21;9.20;99.90
8662;DHT22;29684;47.722;9.388;2023-01-05T03:22:27;9.30;99.90
8662;DHT22;29684;47.722;9.388;2023-01-05T03:25:33;9.10;99.90
8662;DHT22;29684;47.722;9.388;2023-01-05T03:28:49;9.30;99.90
8662;DHT22;29684;47.722;9.388;2023-01-05T03:31:59;9.10;99.90
8662;DHT22;29684;47.722;9.388;2023-01-05T03:35:09;9.60;99.90
8662;DHT22;29684;47.722;9.388;2023-01-05T03:38:21;9.10;99.90
8662;DHT22;29684;47.722;9.388;2023-01-05T03:41:08;9.10;99.90
8662;DHT22;29684;47.722;9.388;2023-01-05T03:43:56;9.10;99.90
8662;DHT22;29684;47.722;9.388;2023-01-05T03:46:40;9.20;99.90
8662;DHT22;29684;47.722;9.388;2023-01-05T03:49:24;9.20;99.90
8662;DHT22;29684;47.722;9.388;2023-01-05T03:52:08;9.10;99.90
8662;DHT22;29684;47.722;9.388;2023-01-05T03:54:52;9.20;99.90
8662;DHT22;29684;47.722;9.388;2023-01-05T03:57:36;8.90;99.90
8662;DHT22;29684;47.722;9.388;2023-01-05T04:00:21;9.10;99.90
8662;DHT22;29684;47.722;9.388;2023-01-05T04:03:05;9.20;99.90
8662;DHT22;29684;47.722;9.388;2023-01-05T04:05:51;9.20;99.90
8662;DHT22;29684;47.722;9.388;2023-01-05T04:08:35;9.90;99.90
8662;DHT22;29684;47.722;9.388;2023-01-05T04:11:21;10.60;99.90
8662;DHT22;29684;47.722;9.388;2023-01-05T04:14:05;9.50;99.90
8662;DHT22;29684;47.722;9.388;2023-01-05T04:16:49;9.50;99.90
8662;DHT22;29684;47.722;9.388;2023-01-05T04:19:33;10.10;99.90
8662;DHT22;29684;47.722;9.388;2023-01-05T04:22:17;9.50;99.90
8662;DHT22;29684;47.722;9.388;2023-01-05T04:25:02;9.50;99.90
8662;DHT22;29684;47.722;9.388;2023-01-05T04:27:46;9.50;99.90
8662;DHT22;29684;47.722;9.388;2023-01-05T04:30:30;9.50;99.90
8662;DHT22;29684;47.722;9.388;2023-01-05T04:33:14;9.90;99.90
8662;DHT22;29684;47.722;9.388;2023-01-05T04:35:59;9.50;99.90
8662;DHT22;29684;47.722;9.388;2023-01-05T04:38:43;9.60;99.90
8662;DHT22;29684;47.722;9.388;2023-01-05T04:41:27;9.60;99.90
8662;DHT22;29684;47.722;9.388;2023-01-05T04:44:11;9.50;99.90
8662;DHT22;29684;47.722;9.388;2023-01-05T04:46:55;9.50;99.90
8662;DHT22;29684;47.722;9.388;2023-01-05T04:49:39;9.20;99.90
8662;DHT22;29684;47.722;9.388;2023-01-05T04:52:24;9.70;99.90
8662;DHT22;29684;47.722;9.388;2023-01-05T04:55:08;10.10;99.90
8662;DHT22;29684;47.722;9.388;2023-01-05T04:57:52;9.60;99.90
8662;DHT22;29684;47.722;9.388;2023-01-05T05:00:36;9.60;99.90
8662;DHT22;29684;47.722;9.388;2023-01-05T05:03:20;9.60;99.90
8662;DHT22;29684;47.722;9.388;2023-01-05T05:06:05;9.60;99.90
8662;DHT22;29684;47.722;9.388;2023-01-05T05:08:49;10.40;99.90
8662;DHT22;29684;47.722;9.388;2023-01-05T05:11:34;9.40;99.90
8662;DHT22;29684;47.722;9.388;2023-01-05T05:14:18;9.60;99.90
8662;DHT22;29684;47.722;9.388;2023-01-05T05:17:02;9.90;99.90
8662;DHT22;29684;47.722;9.388;2023-01-05T05:19:46;9.60;99.90
8662;DHT22;29684;47.722;9.388;2023-01-05T05:22:30;9.80;99.90
8662;DHT22;29684;47.722;9.388;2023-01-05T05:25:14;9.80;99.90
8662;DHT22;29684;47.722;9.388;2023-01-05T05:27:59;9.60;99.90
8662;DHT22;29684;47.722;9.388;2023-01-05T05:30:43;9.60;99.90
8662;DHT22;29684;47.722;9.388;2023-01-05T05:33:27;9.60;99.90
8662;DHT22;29684;47.722;9.388;2023-01-05T05:36:11;9.60;99.90
8662;DHT22;29684;47.722;9.388;2023-01-05T05:38:55;9.60;99.90
8662;DHT22;29684;47.722;9.388;2023-01-05T05:41:41;9.60;99.90
8662;DHT22;29684;47.722;9.388;2023-01-05T05:44:26;10.10;99.90
8662;DHT22;29684;47.722;9.388;2023-01-05T05:47:10;9.70;99.90
8662;DHT22;29684;47.722;9.388;2023-01-05T05:49:54;9.70;99.90
8662;DHT22;29684;47.722;9.388;2023-01-05T05:52:38;9.60;99.90
8662;DHT22;29684;47.722;9.388;2023-01-05T05:55:22;9.70;99.90
8662;DHT22;29684;47.722;9.388;2023-01-05T05:58:06;9.90;99.90
8662;DHT22;29684;47.722;9.388;2023-01-05T06:00:50;9.80;99.90
8662;DHT22;29684;47.722;9.388;2023-01-05T06:03:34;9.60;99.90
8662;DHT22;29684;47.722;9.388;2023-01-05T06:06:18;10.10;99.90
8662;DHT22;29684;47.722;9.388;2023-01-05T06:09:02;9.70;99.90
8662;DHT22;29684;47.722;9.388;2023-01-05T06:11:47;9.60;99.90
8662;DHT22;29684;47.722;9.388;2023-01-05T06:14:31;9.60;99.90
8662;DHT22;29684;47.722;9.388;2023-01-05T06:17:15;9.60;99.90
8662;DHT22;29684;47.722;9.388;2023-01-05T06:19:59;9.10;99.90
8662;DHT22;29684;47.722;9.388;2023-01-05T06:22:43;9.60;99.90
8662;DHT22;29684;47.722;9.388;2023-01-05T06:25:28;9.60;99.90
8662;DHT22;29684;47.722;9.388;2023-01-05T06:28:15;9.60;99.90
8662;DHT22;29684;47.722;9.388;2023-01-05T06:30:59;9.60;99.90
8662;DHT22;29684;47.722;9.388;2023-01-05T06:33:43;10.00;99.90
8662;DHT22;29684;47.722;9.388;2023-01-05T06:36:27;9.60;99.90
8662;DHT22;29684;47.722;9.388;2023-01-05T06:39:11;9.40;99.90
8662;DHT22;29684;47.722;9.388;2023-01-05T06:41:55;9.50;99.90
8662;DHT22;29684;47.722;9.388;2023-01-05T06:44:39;10.30;99.90
8662;DHT22;29684;47.722;9.388;2023-01-05T06:47:25;10.00;99.90
8662;DHT22;29684;47.722;9.388;2023-01-05T06:50:10;9.60;99.90
8662;DHT22;29684;47.722;9.388;2023-01-05T06:52:54;9.60;99.90
8662;DHT22;29684;47.722;9.388;2023-01-05T06:55:39;9.80;99.90
8662;DHT22;29684;47.722;9.388;2023-01-05T06:58:23;9.60;99.90
8662;DHT22;29684;47.722;9.388;2023-01-05T07:01:07;9.80;99.90
8662;DHT22;29684;47.722;9.388;2023-01-05T07:03:51;9.60;99.90
8662;DHT22;29684;47.722;9.388;2023-01-05T07:06:35;9.60;99.90
8662;DHT22;29684;47.722;9.388;2023-01-05T07:09:19;9.30;99.90
8662;DHT22;29684;47.722;9.388;2023-01-05T07:12:03;9.70;99.90
8662;DHT22;29684;47.722;9.388;2023-01-05T07:14:48;9.70;99.90
8662;DHT22;29684;47.722;9.388;2023-01-05T07:17:32;9.70;99.90
8662;DHT22;29684;47.722;9.388;2023-01-05T07:20:16;10.30;99.90
8662;DHT22;29684;47.722;9.388;2023-01-05T07:23:01;9.70;99.90
8662;DHT22;29684;47.722;9.388;2023-01-05T07:25:45;9.70;99.90
8662;DHT22;29684;47.722;9.388;2023-01-05T07:28:29;10.10;99.90
8662;DHT22;29684;47.722;9.388;2023-01-05T07:31:13;10.60;99.90
8662;DHT22;29684;47.722;9.388;2023-01-05T07:33:57;9.60;99.90
8662;DHT22;29684;47.722;9.388;2023-01-05T07:36:41;9.80;99.90
8662;DHT22;29684;47.722;9.388;2023-01-05T07:39:25;9.90;99.90
8662;DHT22;29684;47.722;9.388;2023-01-05T07:42:09;9.80;99.90
8662;DHT22;29684;47.722;9.388;2023-01-05T07:44:53;9.70;99.90
8662;DHT22;29684;47.722;9.388;2023-01-05T07:47:38;9.80;99.90
8662;DHT22;29684;47.722;9.388;2023-01-05T07:50:25;9.90;99.90
8662;DHT22;29684;47.722;9.388;2023-01-05T07:53:09;9.90;99.90
8662;DHT22;29684;47.722;9.388;2023-01-05T07:55:58;9.90;99.90
8662;DHT22;29684;47.722;9.388;2023-01-05T07:58:43;9.90;99.90
8662;DHT22;29684;47.722;9.388;2023-01-05T08:01:27;9.30;99.90
8662;DHT22;29684;47.722;9.388;2023-01-05T08:04:11;9.90;99.90
8662;DHT22;29684;47.722;9.388;2023-01-05T08:06:55;9.90;99.90
8662;DHT22;29684;47.722;9.388;2023-01-05T08:09:40;9.90;99.90
8662;DHT22;29684;47.722;9.388;2023-01-05T08:12:42;10.10;99.90
8662;DHT22;29684;47.722;9.388;2023-01-05T08:15:45;9.80;99.90
8662;DHT22;29684;47.722;9.388;2023-01-05T08:18:29;9.80;99.90
8662;DHT22;29684;47.722;9.388;2023-01-05T08:21:14;10.40;99.90
8662;DHT22;29684;47.722;9.388;2023-01-05T08:23:58;9.80;99.90
8662;DHT22;29684;47.722;9.388;2023-01-05T08:26:42;9.80;99.90
8662;DHT22;29684;47.722;9.388;2023-01-05T08:29:27;9.80;99.90
8662;DHT22;29684;47.722;9.388;2023-01-05T08:32:11;10.00;99.90
8662;DHT22;29684;47.722;9.388;2023-01-05T08:34:56;9.90;99.90
8662;DHT22;29684;47.722;9.388;2023-01-05T08:37:43;10.10;99.90
8662;DHT22;29684;47.722;9.388;2023-01-05T08:40:28;10.60;99.90
8662;DHT22;29684;47.722;9.388;2023-01-05T08:43:13;9.90;99.90
8662;DHT22;29684;47.722;9.388;2023-01-05T08:45:57;10.00;99.90
8662;DHT22;29684;47.722;9.388;2023-01-05T08:48:41;10.00;99.90
8662;DHT22;29684;47.722;9.388;2023-01-05T08:51:26;10.00;99.90
8662;DHT22;29684;47.722;9.388;2023-01-05T08:54:10;10.00;99.90
8662;DHT22;29684;47.722;9.388;2023-01-05T08:56:55;10.10;99.90
8662;DHT22;29684;47.722;9.388;2023-01-05T08:59:39;10.10;99.90
8662;DHT22;29684;47.722;9.388;2023-01-05T09:02:24;10.40;99.90
8662;DHT22;29684;47.722;9.388;2023-01-05T09:05:08;11.10;99.90
8662;DHT22;29684;47.722;9.388;2023-01-05T09:07:53;10.10;99.90
8662;DHT22;29684;47.722;9.388;2023-01-05T09:10:37;10.50;99.90
8662;DHT22;29684;47.722;9.388;2023-01-05T09:13:21;10.10;99.90
8662;DHT22;29684;47.722;9.388;2023-01-05T09:16:10;10.10;99.90
8662;DHT22;29684;47.722;9.388;2023-01-05T09:19:00;10.80;99.90
8662;DHT22;29684;47.722;9.388;2023-01-05T09:21:47;10.60;99.90
8662;DHT22;29684;47.722;9.388;2023-01-05T09:24:31;11.70;99.90
8662;DHT22;29684;47.722;9.388;2023-01-05T09:27:16;10.00;99.90
8662;DHT22;29684;47.722;9.388;2023-01-05T09:29:59;9.90;99.90
8662;DHT22;29684;47.722;9.388;2023-01-05T09:32:44;10.20;99.90
8662;DHT22;29684;47.722;9.388;2023-01-05T09:35:28;9.30;99.90
8662;DHT22;29684;47.722;9.388;2023-01-05T09:38:14;9.90;99.90
8662;DHT22;29684;47.722;9.388;2023-01-05T09:50:23;10.00;99.90
8662;DHT22;29684;47.722;9.388;2023-01-05T09:53:09;10.10;99.90
8662;DHT22;29684;47.722;9.388;2023-01-05T09:55:55;10.10;99.90
8662;DHT22;29684;47.722;9.388;2023-01-05T09:58:41;10.20;99.90
8662;DHT22;29684;47.722;9.388;2023-01-05T10:01:27;11.20;99.90
8662;DHT22;29684;47.722;9.388;2023-01-05T10:04:14;10.20;99.90
8662;DHT22;29684;47.722;9.388;2023-01-05T10:07:03;10.20;99.90
8662;DHT22;29684;47.722;9.388;2023-01-05T10:09:50;10.30;99.90
8662;DHT22;29684;47.722;9.388;2023-01-05T10:12:43;10.20;99.90
8662;DHT22;29684;47.722;9.388;2023-01-05T10:15:51;10.20;99.90
8662;DHT22;29684;47.722;9.388;2023-01-05T10:18:36;10.10;99.90
8662;DHT22;29684;47.722;9.388;2023-01-05T10:21:30;10.30;99.90
8662;DHT22;29684;47.722;9.388;2023-01-05T10:24:29;10.20;99.90
8662;DHT22;29684;47.722;9.388;2023-01-05T10:27:25;10.30;99.90
8662;DHT22;29684;47.722;9.388;2023-01-05T10:30:16;10.90;99.90
8662;DHT22;29684;47.722;9.388;2023-01-05T10:33:15;10.40;99.90
8662;DHT22;29684;47.722;9.388;2023-01-05T10:45:11;10.50;99.90
8662;DHT22;29684;47.722;9.388;2023-01-05T10:47:57;10.50;99.90
8662;DHT22;29684;47.722;9.388;2023-01-05T10:50:43;9.90;99.90
8662;DHT22;29684;47.722;9.388;2023-01-05T10:53:29;10.50;99.90
8662;DHT22;29684;47.722;9.388;2023-01-05T10:56:24;10.70;99.90
8662;DHT22;29684;47.722;9.388;2023-01-05T10:59:12;10.70;99.90
8662;DHT22;29684;47.722;9.388;2023-01-05T11:01:58;10.80;99.90
8662;DHT22;29684;47.722;9.388;2023-01-05T11:04:46;12.30;99.90
8662;DHT22;29684;47.722;9.388;2023-01-05T11:07:32;11.80;99.90
8662;DHT22;29684;47.722;9.388;2023-01-05T11:10:38;11.00;99.90
8662;DHT22;29684;47.722;9.388;2023-01-05T11:13:36;11.10;99.90
8662;DHT22;29684;47.722;9.388;2023-01-05T11:16:34;11.20;99.90
8662;DHT22;29684;47.722;9.388;2023-01-05T11:19:27;11.50;99.90
8662;DHT22;29684;47.722;9.388;2023-01-05T11:22:27;11.90;99.90
8662;DHT22;29684;47.722;9.388;2023-01-05T11:25:27;11.30;99.90
8662;DHT22;29684;47.722;9.388;2023-01-05T11:28:16;11.30;99.90
8662;DHT22;29684;47.722;9.388;2023-01-05T11:31:04;11.40;99.90
8662;DHT22;29684;47.722;9.388;2023-01-05T11:33:55;11.20;99.90
8662;DHT22;29684;47.722;9.388;2023-01-05T11:36:41;11.40;99.90
8662;DHT22;29684;47.722;9.388;2023-01-05T11:39:29;11.60;99.90
8662;DHT22;29684;47.722;9.388;2023-01-05T11:42:19;11.70;99.90
8662;DHT22;29684;47.722;9.388;2023-01-05T11:45:22;11.50;99.90
8662;DHT22;29684;47.722;9.388;2023-01-05T11:48:12;11.50;99.90
8662;DHT22;29684;47.722;9.388;2023-01-05T11:51:01;11.50;99.90
8662;DHT22;29684;47.722;9.388;2023-01-05T11:53:47;11.50;99.90
8662;DHT22;29684;47.722;9.388;2023-01-05T11:56:31;12.40;99.90
8662;DHT22;29684;47.722;9.388;2023-01-05T11:59:27;12.70;99.90
8662;DHT22;29684;47.722;9.388;2023-01-05T12:02:44;11.70;99.90
8662;DHT22;29684;47.722;9.388;2023-01-05T12:05:43;11.70;99.90
8662;DHT22;29684;47.722;9.388;2023-01-05T12:08:40;11.80;99.90
8662;DHT22;29684;47.722;9.388;2023-01-05T12:11:41;11.70;99.90
8662;DHT22;29684;47.722;9.388;2023-01-05T12:21:05;12.10;99.90
8662;DHT22;29684;47.722;9.388;2023-01-05T12:27:10;13.20;99.90
8662;DHT22;29684;47.722;9.388;2023-01-05T12:33:26;11.80;99.90
8662;DHT22;29684;47.722;9.388;2023-01-05T12:42:31;11.80;99.90
8662;DHT22;29684;47.722;9.388;2023-01-05T12:45:45;11.80;99.90
8662;DHT22;29684;47.722;9.388;2023-01-05T12:48:43;11.70;99.90
8662;DHT22;29684;47.722;9.388;2023-01-05T12:54:52;11.70;99.90
8662;DHT22;29684;47.722;9.388;2023-01-05T12:57:46;11.70;99.90
8662;DHT22;29684;47.722;9.388;2023-01-05T13:00:34;11.80;99.90
8662;DHT22;29684;47.722;9.388;2023-01-05T13:03:28;11.70;99.90
8662;DHT22;29684;47.722;9.388;2023-01-05T13:06:16;11.50;99.90
8662;DHT22;29684;47.722;9.388;2023-01-05T13:09:08;12.20;99.90
8662;DHT22;29684;47.722;9.388;2023-01-05T13:11:58;11.70;99.90
8662;DHT22;29684;47.722;9.388;2023-01-05T13:15:12;11.80;99.90
8662;DHT22;29684;47.722;9.388;2023-01-05T13:17:53;11.70;99.90
8662;DHT22;29684;47.722;9.388;2023-01-05T13:20:43;13.10;99.90
8662;DHT22;29684;47.722;9.388;2023-01-05T13:23:46;12.50;99.90
8662;DHT22;29684;47.722;9.388;2023-01-05T13:26:31;12.00;99.90
8662;DHT22;29684;47.722;9.388;2023-01-05T13:29:26;11.40;99.90
8662;DHT22;29684;47.722;9.388;2023-01-05T13:38:18;11.60;99.90
8662;DHT22;29684;47.722;9.388;2023-01-05T13:53:24;11.60;99.90
8662;DHT22;29684;47.722;9.388;2023-01-05T13:59:15;11.60;99.90
8662;DHT22;29684;47.722;9.388;2023-01-05T14:02:03;11.50;99.90
8662;DHT22;29684;47.722;9.388;2023-01-05T14:04:48;11.60;99.90
8662;DHT22;29684;47.722;9.388;2023-01-05T14:07:32;11.40;99.90
8662;DHT22;29684;47.722;9.388;2023-01-05T14:10:22;12.50;99.90
8662;DHT22;29684;47.722;9.388;2023-01-05T14:22:35;10.90;99.90
8662;DHT22;29684;47.722;9.388;2023-01-05T14:28:42;11.00;99.90
8662;DHT22;29684;47.722;9.388;2023-01-05T14:31:34;11.40;99.90
8662;DHT22;29684;47.722;9.388;2023-01-05T14:34:26;11.50;99.90
8662;DHT22;29684;47.722;9.388;2023-01-05T14:37:24;11.50;99.90
8662;DHT22;29684;47.722;9.388;2023-01-05T14:40:30;11.40;99.90
8662;DHT22;29684;47.722;9.388;2023-01-05T14:43:33;11.40;99.90
8662;DHT22;29684;47.722;9.388;2023-01-05T14:46:17;12.20;99.90
8662;DHT22;29684;47.722;9.388;2023-01-05T14:49:05;11.50;99.90
8662;DHT22;29684;47.722;9.388;2023-01-05T14:51:55;11.40;99.90
8662;DHT22;29684;47.722;9.388;2023-01-05T15:06:38;11.30;99.90
8662;DHT22;29684;47.722;9.388;2023-01-05T15:29:47;11.50;99.90
8662;DHT22;29684;47.722;9.388;2023-01-05T15:32:40;11.20;99.90
8662;DHT22;29684;47.722;9.388;2023-01-05T15:35:34;11.10;99.90
8662;DHT22;29684;47.722;9.388;2023-01-05T15:38:22;11.10;99.90
8662;DHT22;29684;47.722;9.388;2023-01-05T15:41:10;11.10;99.90
8662;DHT22;29684;47.722;9.388;2023-01-05T15:43:55;11.10;99.90
8662;DHT22;29684;47.722;9.388;2023-01-05T15:46:41;11.20;99.90
8662;DHT22;29684;47.722;9.388;2023-01-05T15:49:29;11.00;99.90
8662;DHT22;29684;47.722;9.388;2023-01-05T15:52:27;11.10;99.90
8662;DHT22;29684;47.722;9.388;2023-01-05T15:55:14;11.00;99.90
8662;DHT22;29684;47.722;9.388;2023-01-05T15:58:11;10.50;99.90
8662;DHT22;29684;47.722;9.388;2023-01-05T16:01:11;10.90;99.90
8662;DHT22;29684;47.722;9.388;2023-01-05T16:04:08;10.90;99.90
8662;DHT22;29684;47.722;9.388;2023-01-05T16:07:00;10.80;99.90
8662;DHT22;29684;47.722;9.388;2023-01-05T16:09:45;10.80;99.90
8662;DHT22;29684;47.722;9.388;2023-01-05T16:12:30;11.70;99.90
8662;DHT22;29684;47.722;9.388;2023-01-05T16:15:17;11.00;99.90
8662;DHT22;29684;47.722;9.388;2023-01-05T16:18:06;11.40;99.90
8662;DHT22;29684;47.722;9.388;2023-01-05T16:20:54;10.40;99.90
8662;DHT22;29684;47.722;9.388;2023-01-05T16:23:48;10.80;99.90
8662;DHT22;29684;47.722;9.388;2023-01-05T16:26:36;10.80;99.90
8662;DHT22;29684;47.722;9.388;2023-01-05T16:29:30;10.60;99.90
8662;DHT22;29684;47.722;9.388;2023-01-05T16:32:35;11.60;99.90
8662;DHT22;29684;47.722;9.388;2023-01-05T16:38:29;10.70;99.90
8662;DHT22;29684;47.722;9.388;2023-01-05T16:41:26;10.70;99.90
8662;DHT22;29684;47.722;9.388;2023-01-05T16:44:11;11.30;99.90
8662;DHT22;29684;47.722;9.388;2023-01-05T16:47:07;10.60;99.90
8662;DHT22;29684;47.722;9.388;2023-01-05T16:49:51;10.60;99.90
8662;DHT22;29684;47.722;9.388;2023-01-05T16:52:36;10.60;99.90
8662;DHT22;29684;47.722;9.388;2023-01-05T16:55:27;10.50;99.90
8662;DHT22;29684;47.722;9.388;2023-01-05T17:03:56;10.00;99.90
8662;DHT22;29684;47.722;9.388;2023-01-05T17:06:46;10.40;99.90
8662;DHT22;29684;47.722;9.388;2023-01-05T17:09:31;11.00;99.90
8662;DHT22;29684;47.722;9.388;2023-01-05T17:12:16;10.40;99.90
8662;DHT22;29684;47.722;9.388;2023-01-05T17:15:01;10.40;99.90
8662;DHT22;29684;47.722;9.388;2023-01-05T17:17:48;10.40;99.90
8662;DHT22;29684;47.722;9.388;2023-01-05T17:20:37;10.20;99.90
8662;DHT22;29684;47.722;9.388;2023-01-05T17:23:29;9.80;99.90
8662;DHT22;29684;47.722;9.388;2023-01-05T17:26:23;10.20;99.90
8662;DHT22;29684;47.722;9.388;2023-01-05T17:29:21;10.20;99.90
8662;DHT22;29684;47.722;9.388;2023-01-05T17:32:05;10.20;99.90
8662;DHT22;29684;47.722;9.388;2023-01-05T17:34:49;10.00;99.90
8662;DHT22;29684;47.722;9.388;2023-01-05T17:37:33;10.80;99.90
8662;DHT22;29684;47.722;9.388;2023-01-05T17:40:18;10.20;99.90
8662;DHT22;29684;47.722;9.388;2023-01-05T17:43:03;10.20;99.90
8662;DHT22;29684;47.722;9.388;2023-01-05T17:45:47;10.10;99.90
8662;DHT22;29684;47.722;9.388;2023-01-05T17:48:32;10.00;99.90
8662;DHT22;29684;47.722;9.388;2023-01-05T17:51:16;10.40;99.90
8662;DHT22;29684;47.722;9.388;2023-01-05T17:54:00;10.80;99.90
8662;DHT22;29684;47.722;9.388;2023-01-05T17:56:48;12.20;99.90
8662;DHT22;29684;47.722;9.388;2023-01-05T17:59:32;10.60;99.90
8662;DHT22;29684;47.722;9.388;2023-01-05T18:02:17;10.20;99.90
8662;DHT22;29684;47.722;9.388;2023-01-05T18:05:01;12.30;99.90
8662;DHT22;29684;47.722;9.388;2023-01-05T18:07:45;12.20;99.90
8662;DHT22;29684;47.722;9.388;2023-01-05T18:10:30;10.40;99.90
8662;DHT22;29684;47.722;9.388;2023-01-05T18:13:14;12.00;99.90
8662;DHT22;29684;47.722;9.388;2023-01-05T18:16:03;9.80;99.90
8662;DHT22;29684;47.722;9.388;2023-01-05T18:18:48;11.80;99.90
8662;DHT22;29684;47.722;9.388;2023-01-05T18:21:32;10.50;99.90
8662;DHT22;29684;47.722;9.388;2023-01-05T18:24:18;9.80;99.90
8662;DHT22;29684;47.722;9.388;2023-01-05T18:27:02;9.80;99.90
8662;DHT22;29684;47.722;9.388;2023-01-05T18:29:50;9.80;99.90
8662;DHT22;29684;47.722;9.388;2023-01-05T18:32:35;9.80;99.90
8662;DHT22;29684;47.722;9.388;2023-01-05T18:35:19;10.40;99.90
8662;DHT22;29684;47.722;9.388;2023-01-05T18:38:03;10.10;99.90
8662;DHT22;29684;47.722;9.388;2023-01-05T18:40:48;9.70;99.90
8662;DHT22;29684;47.722;9.388;2023-01-05T18:43:33;10.10;99.90
8662;DHT22;29684;47.722;9.388;2023-01-05T18:46:18;9.60;99.90
8662;DHT22;29684;47.722;9.388;2023-01-05T18:49:02;9.50;99.90
8662;DHT22;29684;47.722;9.388;2023-01-05T18:51:49;10.90;99.90
8662;DHT22;29684;47.722;9.388;2023-01-05T18:54:34;9.20;99.90
8662;DHT22;29684;47.722;9.388;2023-01-05T18:57:21;11.10;99.90
8662;DHT22;29684;47.722;9.388;2023-01-05T19:00:06;10.70;99.90
8662;DHT22;29684;47.722;9.388;2023-01-05T19:02:50;9.00;99.90
8662;DHT22;29684;47.722;9.388;2023-01-05T19:05:42;11.10;99.90
8662;DHT22;29684;47.722;9.388;2023-01-05T19:08:27;9.00;99.90
8662;DHT22;29684;47.722;9.388;2023-01-05T19:11:22;9.50;99.90
8662;DHT22;29684;47.722;9.388;2023-01-05T19:14:07;11.30;99.90
8662;DHT22;29684;47.722;9.388;2023-01-05T19:16:51;10.90;99.90
8662;DHT22;29684;47.722;9.388;2023-01-05T19:19:37;8.80;99.90
8662;DHT22;29684;47.722;9.388;2023-01-05T19:22:21;8.60;99.90
8662;DHT22;29684;47.722;9.388;2023-01-05T19:25:05;10.60;99.90
8662;DHT22;29684;47.722;9.388;2023-01-05T19:27:50;8.70;99.90
8662;DHT22;29684;47.722;9.388;2023-01-05T19:30:34;10.70;99.90
8662;DHT22;29684;47.722;9.388;2023-01-05T19:33:18;8.80;99.90
8662;DHT22;29684;47.722;9.388;2023-01-05T19:36:07;8.50;99.90
8662;DHT22;29684;47.722;9.388;2023-01-05T19:38:51;8.40;99.90
8662;DHT22;29684;47.722;9.388;2023-01-05T19:41:37;10.60;99.90
8662;DHT22;29684;47.722;9.388;2023-01-05T19:44:22;8.40;99.90
8662;DHT22;29684;47.722;9.388;2023-01-05T19:47:06;8.30;99.90
8662;DHT22;29684;47.722;9.388;2023-01-05T19:49:50;9.40;99.90
8662;DHT22;29684;47.722;9.388;2023-01-05T19:52:37;10.80;99.90
8662;DHT22;29684;47.722;9.388;2023-01-05T19:55:21;8.90;99.90
8662;DHT22;29684;47.722;9.388;2023-01-05T19:58:05;9.20;99.90
8662;DHT22;29684;47.722;9.388;2023-01-05T20:00:49;7.90;99.90
8662;DHT22;29684;47.722;9.388;2023-01-05T20:03:34;10.30;99.90
8662;DHT22;29684;47.722;9.388;2023-01-05T20:06:21;9.70;99.90
8662;DHT22;29684;47.722;9.388;2023-01-05T20:09:10;8.50;99.90
8662;DHT22;29684;47.722;9.388;2023-01-05T20:11:55;10.60;99.90
8662;DHT22;29684;47.722;9.388;2023-01-05T20:14:39;10.40;99.90
8662;DHT22;29684;47.722;9.388;2023-01-05T20:17:24;8.40;99.90
8662;DHT22;29684;47.722;9.388;2023-01-05T20:20:08;9.70;99.90
8662;DHT22;29684;47.722;9.388;2023-01-05T20:22:55;8.30;99.90
8662;DHT22;29684;47.722;9.388;2023-01-05T20:25:39;10.50;99.90